Time;durP1;ratioP1;P1;durP2;ratioP2;P2;SDS_P1;SDS_P2;PMS_P1;PMS_P2;Temp;Humidity;BMP_temperature;BMP_pressure;BME280_temperature;BME280_humidity;BME280_pressure;Samples;Min_cycle;Max_cycle;Signal;HPM_P1;HPM_P2
2021/03/27 00:00:39;;;;;;;6.00;3.15;;;8.20;68.90;;;;;;5112462;28;20025;-73
2021/03/27 00:03:19;;;;;;;4.68;3.20;;;7.90;69.30;;;;;;5094420;28;20027;-72
2021/03/27 00:06:02;;;;;;;3.85;2.75;;;7.70;70.20;;;;;;5112574;28;20019;-72
2021/03/27 00:08:40;;;;;;;6.25;3.50;;;7.80;70.00;;;;;;5094177;28;20049;-72
2021/03/27 00:11:18;;;;;;;5.18;3.15;;;7.80;70.20;;;;;;5112517;28;20024;-72
2021/03/27 00:14:00;;;;;;;5.53;3.45;;;7.90;70.10;;;;;;5112262;28;20050;-72
2021/03/27 00:16:45;;;;;;;9.00;3.40;;;7.90;70.00;;;;;;5112434;28;20016;-73
2021/03/27 00:19:42;;;;;;;5.85;2.97;;;7.90;69.60;;;;;;5112234;28;20031;-73
2021/03/27 00:22:13;;;;;;;4.97;3.25;;;7.90;69.40;;;;;;5095651;28;20420;-72
2021/03/27 00:25:11;;;;;;;5.63;2.97;;;7.80;69.80;;;;;;5112247;28;20031;-72
2021/03/27 00:28:16;;;;;;;5.15;3.30;;;7.70;70.00;;;;;;5096264;28;20038;-72
2021/03/27 00:30:56;;;;;;;3.67;2.83;;;7.70;70.00;;;;;;5112568;28;20106;-72
2021/03/27 00:33:27;;;;;;;5.03;2.80;;;7.80;69.80;;;;;;5112139;28;20032;-72
2021/03/27 00:36:00;;;;;;;4.97;3.00;;;7.90;69.90;;;;;;5094216;28;20054;-72
2021/03/27 00:38:44;;;;;;;9.35;3.28;;;7.90;69.50;;;;;;5111932;28;20050;-72
2021/03/27 00:41:15;;;;;;;8.60;3.38;;;7.90;69.60;;;;;;5096946;28;20016;-72
2021/03/27 00:43:48;;;;;;;6.65;2.95;;;8.00;69.70;;;;;;5116396;28;20098;-72
2021/03/27 00:46:17;;;;;;;5.35;3.13;;;8.00;69.20;;;;;;5116372;28;20574;-73
2021/03/27 00:48:57;;;;;;;4.47;3.15;;;8.00;68.90;;;;;;5116028;28;20069;-72
2021/03/27 00:51:28;;;;;;;5.53;3.30;;;8.10;69.00;;;;;;5116170;28;20080;-73
2021/03/27 00:54:04;;;;;;;8.02;4.03;;;8.10;69.00;;;;;;5116029;28;20016;-73
2021/03/27 00:56:44;;;;;;;6.38;3.17;;;7.80;68.80;;;;;;5115952;28;20020;-72
2021/03/27 00:59:35;;;;;;;6.18;3.78;;;8.00;68.90;;;;;;5115818;28;20471;-72
2021/03/27 01:02:06;;;;;;;5.68;3.33;;;8.20;68.50;;;;;;5116090;28;20028;-73
2021/03/27 01:04:34;;;;;;;5.75;3.30;;;8.10;68.00;;;;;;5115857;28;20059;-72
2021/03/27 01:07:08;;;;;;;5.93;3.63;;;8.20;67.90;;;;;;5115954;28;20032;-72
2021/03/27 01:09:42;;;;;;;10.48;3.67;;;8.20;67.40;;;;;;5097405;28;20065;-72
2021/03/27 01:12:25;;;;;;;10.88;4.13;;;8.20;67.20;;;;;;5115902;28;20471;-72
2021/03/27 01:14:56;;;;;;;13.95;4.65;;;8.20;68.20;;;;;;5115613;28;20080;-72
2021/03/27 01:17:29;;;;;;;5.10;3.05;;;8.00;67.80;;;;;;5115755;28;20072;-73
2021/03/27 01:20:09;;;;;;;7.82;3.72;;;7.80;68.30;;;;;;5115406;28;20384;-72
2021/03/27 01:22:35;;;;;;;4.70;3.35;;;7.80;68.50;;;;;;5115691;28;20072;-72
2021/03/27 01:25:05;;;;;;;6.13;3.70;;;7.90;68.40;;;;;;5115528;28;20054;-72
2021/03/27 01:27:53;;;;;;;5.15;3.50;;;7.90;68.00;;;;;;5080384;28;20491;-72
2021/03/27 01:30:31;;;;;;;6.63;3.90;;;8.00;67.80;;;;;;5115248;28;20059;-72
2021/03/27 01:33:27;;;;;;;5.07;3.35;;;8.00;67.70;;;;;;5115417;28;20082;-72
2021/03/27 01:36:16;;;;;;;7.63;3.90;;;8.00;67.30;;;;;;5111319;28;20131;-72
2021/03/27 01:38:49;;;;;;;7.90;3.60;;;8.00;67.30;;;;;;5115003;28;20031;-72
2021/03/27 01:41:21;;;;;;;10.65;3.63;;;8.10;67.10;;;;;;5097158;28;20020;-73
2021/03/27 01:44:21;;;;;;;9.32;4.13;;;8.40;66.50;;;;;;5115403;28;20028;-72
2021/03/27 01:47:09;;;;;;;7.13;3.60;;;8.20;66.60;;;;;;5115201;28;20086;-72
2021/03/27 01:49:49;;;;;;;5.43;3.03;;;8.20;66.80;;;;;;5114924;28;20417;-73
2021/03/27 01:52:33;;;;;;;7.47;3.97;;;8.20;67.00;;;;;;5115163;28;20020;-73
2021/03/27 01:55:27;;;;;;;6.35;3.13;;;8.40;66.70;;;;;;5079580;28;20069;-73
2021/03/27 01:58:00;;;;;;;7.47;3.63;;;8.60;65.90;;;;;;5114929;28;20020;-74
2021/03/27 02:00:31;;;;;;;8.50;4.80;;;8.80;66.10;;;;;;5079580;28;20035;-74
2021/03/27 02:03:17;;;;;;;5.95;3.00;;;8.60;65.60;;;;;;5114844;28;20023;-74
2021/03/27 02:06:16;;;;;;;7.38;3.70;;;8.60;66.40;;;;;;5114155;28;20105;-73
2021/03/27 02:08:55;;;;;;;6.75;4.13;;;8.60;66.30;;;;;;5114472;28;20050;-74
2021/03/27 02:11:55;;;;;;;4.85;3.33;;;8.60;65.80;;;;;;5114752;28;20089;-74
2021/03/27 02:14:33;;;;;;;6.20;3.63;;;8.70;66.10;;;;;;5114496;28;20020;-74
2021/03/27 02:16:58;;;;;;;3.95;3.30;;;8.70;66.50;;;;;;5096387;28;20418;-74
2021/03/27 02:19:42;;;;;;;7.00;4.07;;;8.60;66.50;;;;;;5114313;28;20023;-74
2021/03/27 02:22:27;;;;;;;14.98;4.53;;;8.40;66.90;;;;;;5114430;28;20019;-74
2021/03/27 02:25:20;;;;;;;5.28;3.38;;;8.40;67.40;;;;;;5114382;28;20024;-73
2021/03/27 02:28:09;;;;;;;8.23;3.42;;;8.60;66.80;;;;;;5096229;28;20379;-73
2021/03/27 02:30:39;;;;;;;7.68;4.18;;;8.50;66.90;;;;;;5114197;28;20543;-73
2021/03/27 02:33:08;;;;;;;5.32;3.75;;;8.30;66.80;;;;;;5079242;28;20028;-73
2021/03/27 02:36:13;;;;;;;7.70;4.70;;;8.10;67.60;;;;;;5114089;28;20031;-73
2021/03/27 02:38:50;;;;;;;10.02;4.97;;;7.90;67.80;;;;;;5084948;28;20035;-73
2021/03/27 02:41:39;;;;;;;9.20;5.03;;;7.90;68.10;;;;;;5114041;28;20483;-73
2021/03/27 02:44:23;;;;;;;9.07;4.82;;;7.70;68.50;;;;;;5114204;28;20425;-73
2021/03/27 02:46:51;;;;;;;7.15;4.65;;;7.80;68.70;;;;;;5113956;28;20027;-73
2021/03/27 02:49:32;;;;;;;10.85;4.45;;;7.80;68.10;;;;;;5095548;28;20429;-73
2021/03/27 02:52:25;;;;;;;10.75;4.65;;;7.80;69.10;;;;;;5113964;28;20065;-73
2021/03/27 02:55:29;;;;;;;6.40;4.85;;;7.80;68.80;;;;;;5095246;28;20487;-72
2021/03/27 02:58:20;;;;;;;9.48;4.97;;;7.80;68.70;;;;;;5082062;28;20066;-73
2021/03/27 03:01:10;;;;;;;6.75;4.88;;;7.90;70.40;;;;;;5113760;28;20390;-73
2021/03/27 03:03:48;;;;;;;8.63;5.18;;;7.80;70.40;;;;;;5113137;28;20039;-73
2021/03/27 03:06:29;;;;;;;7.72;5.05;;;7.70;70.90;;;;;;5113490;28;20030;-73
2021/03/27 03:09:15;;;;;;;14.73;6.28;;;7.40;71.80;;;;;;5113440;28;20487;-73
2021/03/27 03:12:21;;;;;;;7.80;5.32;;;7.40;71.20;;;;;;5094537;28;20028;-73
2021/03/27 03:14:55;;;;;;;12.40;7.85;;;7.30;71.30;;;;;;5113245;28;20032;-73
2021/03/27 03:17:43;;;;;;;8.93;6.18;;;7.50;71.10;;;;;;5078310;28;20023;-73
2021/03/27 03:20:15;;;;;;;8.93;5.85;;;7.60;70.70;;;;;;5113148;28;20022;-73
2021/03/27 03:22:44;;;;;;;7.65;5.53;;;7.60;71.10;;;;;;5113384;28;20026;-73
2021/03/27 03:25:20;;;;;;;9.38;5.85;;;7.50;71.20;;;;;;5113251;28;20483;-73
2021/03/27 03:28:10;;;;;;;14.80;6.20;;;7.60;71.10;;;;;;5113053;28;20035;-74
2021/03/27 03:30:57;;;;;;;10.32;5.88;;;7.70;70.80;;;;;;5113053;28;20027;-74
2021/03/27 03:33:39;;;;;;;12.20;6.95;;;7.70;70.20;;;;;;5077912;28;20065;-74
2021/03/27 03:36:20;;;;;;;11.10;6.68;;;7.80;69.80;;;;;;5113006;28;20049;-73
2021/03/27 03:39:10;;;;;;;11.85;6.30;;;7.60;70.60;;;;;;5112831;28;20035;-73
2021/03/27 03:41:47;;;;;;;12.05;6.63;;;7.60;70.90;;;;;;5112979;28;20286;-71
2021/03/27 03:44:57;;;;;;;11.00;6.63;;;7.70;70.50;;;;;;5094775;28;20031;-72
2021/03/27 03:47:52;;;;;;;11.88;6.50;;;7.60;69.90;;;;;;5112888;28;20020;-72
2021/03/27 03:50:28;;;;;;;10.20;6.00;;;7.50;70.40;;;;;;5112730;28;20077;-73
2021/03/27 03:53:18;;;;;;;12.85;6.03;;;7.30;71.80;;;;;;5094550;28;20110;-73
2021/03/27 03:56:02;;;;;;;12.27;6.32;;;7.00;73.30;;;;;;5094544;28;20034;-72
2021/03/27 03:58:46;;;;;;;9.60;6.10;;;7.00;74.00;;;;;;5094409;28;20068;-73
2021/03/27 04:01:37;;;;;;;9.55;6.40;;;6.80;74.70;;;;;;5112523;28;20050;-73
2021/03/27 04:04:23;;;;;;;11.73;6.72;;;7.10;74.20;;;;;;5112523;28;20055;-73
2021/03/27 04:07:02;;;;;;;10.30;6.22;;;7.30;73.20;;;;;;5094309;28;20023;-73
2021/03/27 04:09:30;;;;;;;15.52;6.75;;;7.60;72.20;;;;;;5112372;28;20019;-73
2021/03/27 04:12:07;;;;;;;11.73;6.20;;;7.80;71.20;;;;;;5094277;28;20107;-73
2021/03/27 04:14:40;;;;;;;14.00;7.03;;;7.90;70.40;;;;;;5093486;28;20048;-73
2021/03/27 04:17:32;;;;;;;18.00;7.18;;;8.10;70.00;;;;;;5112409;28;20028;-73
2021/03/27 04:20:12;;;;;;;13.68;7.35;;;8.30;68.50;;;;;;5112194;28;20016;-73
2021/03/27 04:22:44;;;;;;;14.60;8.07;;;8.40;68.40;;;;;;5094286;28;20019;-73
2021/03/27 04:26:08;;;;;;;13.65;7.25;;;8.50;67.10;;;;;;5112406;28;20111;-73
2021/03/27 04:28:39;;;;;;;14.57;8.07;;;8.40;67.50;;;;;;5089471;28;20035;-73
2021/03/27 04:31:15;;;;;;;11.15;7.68;;;8.20;67.70;;;;;;5112395;28;20058;-73
2021/03/27 04:34:06;;;;;;;14.38;6.68;;;8.10;68.20;;;;;;5112266;28;20388;-73
2021/03/27 04:36:54;;;;;;;19.92;8.63;;;8.00;68.60;;;;;;5112075;28;20040;-73
2021/03/27 04:39:39;;;;;;;16.13;7.70;;;8.20;68.70;;;;;;5112109;28;20086;-73
2021/03/27 04:42:32;;;;;;;15.48;7.35;;;8.10;68.60;;;;;;5112141;28;20107;-73
2021/03/27 04:45:28;;;;;;;14.13;7.75;;;8.20;68.90;;;;;;5112070;28;20050;-73
2021/03/27 04:48:04;;;;;;;16.13;7.95;;;8.20;69.00;;;;;;5112133;28;20043;-73
2021/03/27 04:50:50;;;;;;;14.50;7.13;;;8.00;69.40;;;;;;5111978;28;20027;-73
2021/03/27 04:53:37;;;;;;;15.32;8.88;;;7.90;70.10;;;;;;5112087;28;20020;-73
2021/03/27 04:56:16;;;;;;;10.30;7.60;;;7.90;70.60;;;;;;5111943;28;20084;-73
2021/03/27 04:59:06;;;;;;;16.98;8.93;;;7.90;71.10;;;;;;5111999;28;20031;-73
2021/03/27 05:01:44;;;;;;;22.75;8.07;;;7.90;70.70;;;;;;5111958;28;20020;-73
2021/03/27 05:04:15;;;;;;;24.38;8.63;;;7.90;70.80;;;;;;5111894;28;20020;-73
2021/03/27 05:06:53;;;;;;;17.33;8.95;;;7.90;70.90;;;;;;5111855;28;20060;-73
2021/03/27 05:09:38;;;;;;;14.23;7.80;;;7.90;71.20;;;;;;5111946;28;20035;-73
2021/03/27 05:12:15;;;;;;;12.88;7.45;;;7.90;71.30;;;;;;5093716;28;20438;-73
2021/03/27 05:14:40;;;;;;;15.73;7.35;;;8.00;71.60;;;;;;5111801;28;20077;-73
2021/03/27 05:17:30;;;;;;;10.90;7.10;;;8.20;71.60;;;;;;5111796;28;20020;-73
2021/03/27 05:20:15;;;;;;;15.18;7.65;;;8.30;72.20;;;;;;5111706;28;20432;-73
2021/03/27 05:22:56;;;;;;;12.63;8.38;;;8.50;72.40;;;;;;5111755;28;20027;-73
2021/03/27 05:25:44;;;;;;;14.52;7.88;;;8.70;73.40;;;;;;5111833;28;20030;-73
2021/03/27 05:28:09;;;;;;;16.65;8.70;;;8.80;74.00;;;;;;5115176;28;20028;-73
2021/03/27 05:31:11;;;;;;;11.95;7.45;;;8.90;75.20;;;;;;5115403;28;20038;-73
2021/03/27 05:34:18;;;;;;;14.43;8.75;;;9.00;75.70;;;;;;5097089;28;20064;-73
2021/03/27 05:37:05;;;;;;;15.50;8.32;;;9.10;75.90;;;;;;5096484;28;20054;-73
2021/03/27 05:39:52;;;;;;;10.88;7.18;;;9.20;75.90;;;;;;5115490;28;20406;-73
2021/03/27 05:42:39;;;;;;;11.13;7.22;;;9.30;76.00;;;;;;5115196;28;20542;-73
2021/03/27 05:45:32;;;;;;;12.27;7.43;;;9.30;76.00;;;;;;5115175;28;20467;-73
2021/03/27 05:48:16;;;;;;;12.23;7.60;;;9.20;76.70;;;;;;5115103;28;20051;-73
2021/03/27 05:50:56;;;;;;;13.65;8.20;;;8.90;77.30;;;;;;5096971;28;20027;-73
2021/03/27 05:53:40;;;;;;;14.48;9.07;;;8.80;77.70;;;;;;5114814;28;20027;-73
2021/03/27 05:56:24;;;;;;;16.55;8.88;;;8.80;77.60;;;;;;5113431;28;20024;-73
2021/03/27 05:59:18;;;;;;;12.25;7.28;;;8.70;77.70;;;;;;5114786;28;20024;-73
2021/03/27 06:01:59;;;;;;;12.27;7.78;;;8.60;78.70;;;;;;5114702;28;20022;-73
2021/03/27 06:04:39;;;;;;;13.40;8.85;;;8.60;78.00;;;;;;5096535;28;20169;-73
2021/03/27 06:07:41;;;;;;;13.93;7.75;;;8.60;78.70;;;;;;5114640;28;20067;-73
2021/03/27 06:10:16;;;;;;;15.38;7.30;;;8.60;79.00;;;;;;5114522;28;20027;-73
2021/03/27 06:13:00;;;;;;;11.63;7.93;;;8.70;79.10;;;;;;5114643;28;20028;-73
2021/03/27 06:15:45;;;;;;;16.25;7.38;;;8.80;79.40;;;;;;5114615;28;20032;-73
2021/03/27 06:18:59;;;;;;;11.80;7.13;;;8.90;80.10;;;;;;5114458;28;20019;-72
2021/03/27 06:22:03;;;;;;;15.10;6.95;;;8.80;80.30;;;;;;5052175;28;20031;-73
2021/03/27 06:24:44;;;;;;;16.15;7.60;;;8.90;80.90;;;;;;5114374;28;20107;-73
2021/03/27 06:27:24;;;;;;;13.75;7.97;;;8.90;81.50;;;;;;5096181;28;20024;-73
2021/03/27 06:30:20;;;;;;;15.40;7.53;;;8.90;82.00;;;;;;5114060;28;20040;-73
2021/03/27 06:32:49;;;;;;;15.80;7.65;;;9.00;83.30;;;;;;5096049;28;20023;-73
2021/03/27 06:35:39;;;;;;;10.20;6.80;;;9.00;83.70;;;;;;5113975;28;20076;-73
2021/03/27 06:38:30;;;;;;;9.45;6.55;;;9.00;83.90;;;;;;5113221;28;20032;-73
2021/03/27 06:41:22;;;;;;;14.85;7.18;;;9.10;84.10;;;;;;5113953;28;20024;-73
2021/03/27 06:44:02;;;;;;;10.10;6.43;;;9.00;84.90;;;;;;5113222;28;20097;-73
2021/03/27 06:46:42;;;;;;;11.65;6.50;;;9.10;85.00;;;;;;5113946;28;20517;-73
2021/03/27 06:49:32;;;;;;;11.75;6.88;;;9.10;85.70;;;;;;5113523;28;20065;-73
2021/03/27 06:52:19;;;;;;;17.30;6.32;;;9.10;86.40;;;;;;5113917;28;20059;-73
2021/03/27 06:55:16;;;;;;;13.00;6.10;;;9.20;86.70;;;;;;5113584;28;20031;-73
2021/03/27 06:58:05;;;;;;;18.95;7.03;;;9.20;86.80;;;;;;5114188;28;20387;-76
2021/03/27 07:00:37;;;;;;;7.03;4.32;;;9.30;86.00;;;;;;5095368;28;20024;-73
2021/03/27 07:03:31;;;;;;;19.90;4.68;;;9.40;85.30;;;;;;5113587;28;20382;-73
2021/03/27 07:06:24;;;;;;;5.70;4.25;;;9.40;85.30;;;;;;5113436;28;20055;-73
2021/03/27 07:08:56;;;;;;;9.55;5.00;;;9.40;85.50;;;;;;5078218;28;20023;-73
2021/03/27 07:11:34;;;;;;;20.27;5.63;;;9.40;84.90;;;;;;5113235;28;20028;-73
2021/03/27 07:14:29;;;;;;;8.75;4.10;;;9.40;84.90;;;;;;5095445;28;20386;-75
2021/03/27 07:17:22;;;;;;;7.85;4.82;;;9.40;84.90;;;;;;5102076;28;20039;-74
2021/03/27 07:20:12;;;;;;;11.00;3.55;;;9.40;84.60;;;;;;5113128;28;20102;-74
2021/03/27 07:22:52;;;;;;;12.75;3.80;;;9.30;85.70;;;;;;5113272;28;20031;-73
2021/03/27 07:25:20;;;;;;;6.63;3.95;;;9.20;86.60;;;;;;5094892;28;20114;-73
2021/03/27 07:27:49;;;;;;;7.15;4.30;;;9.20;87.00;;;;;;5112988;28;20038;-73
2021/03/27 07:30:45;;;;;;;7.30;3.17;;;9.30;88.00;;;;;;5112857;28;20028;-73
2021/03/27 07:33:28;;;;;;;26.00;3.20;;;9.20;87.60;;;;;;5094816;28;20024;-73
2021/03/27 07:36:19;;;;;;;7.82;2.92;;;8.90;88.00;;;;;;5094766;28;20441;-73
2021/03/27 07:39:06;;;;;;;6.38;2.17;;;8.90;90.20;;;;;;5112568;28;20015;-73
2021/03/27 07:41:41;;;;;;;5.78;2.80;;;9.10;91.40;;;;;;5112697;28;20077;-73
2021/03/27 07:44:42;;;;;;;4.30;1.85;;;9.00;90.50;;;;;;5112517;28;20032;-74
2021/03/27 07:47:29;;;;;;;3.40;2.25;;;9.10;91.30;;;;;;5094410;28;20028;-73
2021/03/27 07:50:13;;;;;;;2.92;2.22;;;9.00;91.00;;;;;;5121210;27;20038;-73
2021/03/27 07:52:39;;;;;;;6.28;3.13;;;9.10;91.60;;;;;;5100503;28;20028;-72
2021/03/27 07:55:24;;;;;;;6.80;2.92;;;9.10;92.70;;;;;;5090849;28;20506;-73
2021/03/27 07:58:02;;;;;;;3.42;2.33;;;9.00;92.30;;;;;;5128745;27;20079;-72
2021/03/27 08:00:57;;;;;;;3.40;2.22;;;8.80;95.70;;;;;;5133009;27;20076;-73
2021/03/27 08:03:51;;;;;;;2.00;1.67;;;8.80;95.10;;;;;;5132772;27;20056;-72
2021/03/27 08:06:42;;;;;;;2.13;1.42;;;8.80;93.70;;;;;;5093362;28;20042;-72
2021/03/27 08:09:19;;;;;;;5.80;1.80;;;8.80;93.00;;;;;;5092178;28;20024;-73
2021/03/27 08:11:57;;;;;;;4.07;2.05;;;8.90;94.00;;;;;;5092027;28;20036;-72
2021/03/27 08:14:28;;;;;;;8.95;3.67;;;8.90;93.60;;;;;;5090699;28;20097;-72
2021/03/27 08:17:35;;;;;;;2.85;1.42;;;9.00;95.30;;;;;;5091951;28;20020;-72
2021/03/27 08:20:13;;;;;;;2.28;1.42;;;8.90;95.20;;;;;;5090847;28;20027;-72
2021/03/27 08:22:53;;;;;;;2.60;2.00;;;9.00;96.50;;;;;;5090933;28;20043;-72
2021/03/27 08:25:27;;;;;;;2.58;1.38;;;9.10;96.40;;;;;;5090580;28;20557;-72
2021/03/27 08:28:07;;;;;;;5.00;1.60;;;9.20;97.30;;;;;;5091865;28;20386;-72
2021/03/27 08:30:55;;;;;;;4.30;1.70;;;9.30;98.40;;;;;;5090766;28;20036;-73
2021/03/27 08:33:26;;;;;;;5.13;1.80;;;9.20;99.90;;;;;;5091769;28;20503;-72
2021/03/27 08:36:17;;;;;;;13.43;2.33;;;9.20;99.90;;;;;;5073954;28;20475;-73
2021/03/27 08:39:04;;;;;;;21.80;3.75;;;9.00;99.90;;;;;;5091820;28;20028;-72
2021/03/27 08:42:20;;;;;;;10.77;2.67;;;8.70;99.90;;;;;;5092192;28;20024;-73
2021/03/27 08:45:01;;;;;;;3.65;1.10;;;8.00;99.90;;;;;;5046769;28;20459;-73
2021/03/27 08:47:41;;;;;;;3.20;0.98;;;7.30;99.90;;;;;;5090413;28;20030;-73
2021/03/27 08:50:34;;;;;;;12.57;1.30;;;7.00;99.90;;;;;;5091909;28;20101;-72
2021/03/27 08:53:11;;;;;;;4.28;1.20;;;6.90;99.90;;;;;;5091717;28;20154;-72
2021/03/27 08:55:43;;;;;;;4.07;1.17;;;6.80;99.90;;;;;;5091669;28;20036;-73
2021/03/27 08:58:36;;;;;;;2.10;1.40;;;6.70;99.90;;;;;;5091768;28;20475;-73
2021/03/27 09:01:39;;;;;;;3.33;1.30;;;6.30;99.90;;;;;;5093045;28;20027;-73
2021/03/27 09:04:40;;;;;;;1.98;1.08;;;6.10;99.90;;;;;;5094395;28;20365;-72
2021/03/27 09:07:37;;;;;;;4.95;1.70;;;5.90;99.90;;;;;;5089303;28;20031;-72
2021/03/27 09:10:39;;;;;;;4.32;1.42;;;6.10;99.90;;;;;;5095526;28;20052;-72
2021/03/27 09:13:18;;;;;;;4.00;1.35;;;6.20;99.90;;;;;;5095531;28;20451;-72
2021/03/27 09:16:25;;;;;;;1.27;0.68;;;6.20;99.90;;;;;;5094197;28;20028;-72
2021/03/27 09:18:57;;;;;;;2.30;1.20;;;6.50;99.90;;;;;;5043598;28;20036;-72
2021/03/27 09:21:44;;;;;;;2.30;1.10;;;6.70;99.90;;;;;;5095330;28;20025;-72
2021/03/27 09:24:32;;;;;;;2.72;1.10;;;6.70;99.90;;;;;;5095225;28;20495;-73
2021/03/27 09:27:19;;;;;;;3.22;0.90;;;6.70;99.90;;;;;;5093947;28;20382;-72
2021/03/27 09:30:23;;;;;;;3.08;1.23;;;6.60;99.90;;;;;;5095143;28;20439;-72
2021/03/27 09:32:53;;;;;;;2.83;1.15;;;6.60;99.90;;;;;;5095693;28;20548;-73
2021/03/27 09:35:56;;;;;;;4.68;1.95;;;6.20;99.90;;;;;;5094912;28;20032;-73
2021/03/27 09:38:34;;;;;;;1.95;0.95;;;6.40;99.90;;;;;;5094977;28;20065;-73
2021/03/27 09:41:37;;;;;;;1.42;1.05;;;6.50;99.90;;;;;;5093756;28;20040;-73
2021/03/27 09:44:20;;;;;;;4.80;1.10;;;6.80;99.90;;;;;;5094894;28;20038;-73
2021/03/27 09:47:10;;;;;;;2.10;1.23;;;6.80;99.90;;;;;;5076816;28;20028;-73
2021/03/27 09:49:49;;;;;;;5.85;2.70;;;6.70;99.90;;;;;;5093425;28;20035;-73
2021/03/27 09:52:39;;;;;;;8.30;4.25;;;6.80;99.90;;;;;;5094629;28;20020;-73
2021/03/27 09:55:36;;;;;;;1.42;0.90;;;6.90;99.90;;;;;;5094577;28;20545;-73
2021/03/27 09:58:29;;;;;;;3.92;1.35;;;7.00;99.90;;;;;;5094734;28;20024;-73
2021/03/27 10:01:10;;;;;;;2.15;0.77;;;7.00;99.90;;;;;;5094776;28;20357;-73
2021/03/27 10:03:39;;;;;;;4.13;1.30;;;7.10;99.90;;;;;;5093336;28;20016;-73
2021/03/27 10:06:30;;;;;;;3.70;1.33;;;7.10;99.90;;;;;;5094555;28;20048;-73
2021/03/27 10:09:05;;;;;;;3.42;1.05;;;7.00;99.90;;;;;;5094092;28;20020;-73
2021/03/27 10:11:34;;;;;;;3.75;1.42;;;7.00;99.90;;;;;;5094251;28;20026;-73
2021/03/27 10:14:21;;;;;;;1.50;1.35;;;7.00;99.90;;;;;;5091787;28;20028;-73
2021/03/27 10:16:56;;;;;;;3.33;2.50;;;7.10;99.90;;;;;;5094310;28;20024;-73
2021/03/27 10:19:52;;;;;;;2.67;1.35;;;7.20;99.90;;;;;;5094041;28;20472;-73
2021/03/27 10:22:38;;;;;;;1.80;1.50;;;7.20;99.90;;;;;;5095055;28;20069;-76
2021/03/27 10:25:22;;;;;;;4.60;1.75;;;7.00;99.90;;;;;;5059233;28;20032;-79
2021/03/27 10:28:11;;;;;;;4.18;1.85;;;6.80;99.90;;;;;;5092950;28;20383;-72
2021/03/27 10:30:53;;;;;;;2.42;1.48;;;6.80;99.90;;;;;;5074790;28;20028;-72
2021/03/27 10:33:59;;;;;;;3.97;1.70;;;6.60;99.90;;;;;;5093494;28;20032;-73
2021/03/27 10:36:58;;;;;;;1.83;1.58;;;6.80;99.90;;;;;;5093329;28;20073;-72
2021/03/27 10:39:55;;;;;;;4.47;1.33;;;6.90;99.90;;;;;;5091846;28;20016;-73
2021/03/27 10:42:39;;;;;;;2.53;1.30;;;7.00;99.90;;;;;;5091907;28;20031;-73
2021/03/27 10:45:25;;;;;;;3.53;1.40;;;7.40;99.90;;;;;;5093445;28;20052;-73
2021/03/27 10:48:03;;;;;;;2.17;1.02;;;7.70;99.90;;;;;;5093670;28;20032;-73
2021/03/27 10:50:41;;;;;;;2.35;1.20;;;8.20;99.90;;;;;;5093543;28;20032;-73
2021/03/27 10:53:34;;;;;;;1.00;0.90;;;8.30;99.90;;;;;;5093594;28;20056;-73
2021/03/27 10:56:13;;;;;;;8.77;1.42;;;8.50;99.90;;;;;;5093508;28;20107;-73
2021/03/27 10:58:56;;;;;;;3.83;1.00;;;8.90;99.90;;;;;;5093232;28;20081;-73
2021/03/27 11:01:43;;;;;;;2.20;1.27;;;9.00;99.90;;;;;;5093215;28;20028;-73
2021/03/27 11:05:06;;;;;;;2.38;1.55;;;8.90;99.90;;;;;;5092103;28;20060;-73
2021/03/27 11:07:40;;;;;;;4.00;1.75;;;8.50;97.10;;;;;;5011130;28;20501;-74
2021/03/27 11:10:34;;;;;;;2.67;1.30;;;8.00;97.20;;;;;;5011044;28;20095;-72
2021/03/27 11:13:24;;;;;;;4.88;1.33;;;8.00;99.50;;;;;;5069379;28;20029;-72
2021/03/27 11:16:24;;;;;;;3.80;1.75;;;8.00;99.90;;;;;;5092917;28;20038;-72
2021/03/27 11:18:50;;;;;;;5.70;2.22;;;8.20;99.90;;;;;;5020418;28;20445;-74
2021/03/27 11:21:45;;;;;;;2.25;1.23;;;8.30;98.70;;;;;;5091559;28;20024;-71
2021/03/27 11:24:37;;;;;;;1.98;1.42;;;8.60;97.70;;;;;;5028586;28;20073;-71
2021/03/27 11:27:34;;;;;;;6.20;1.38;;;9.30;92.70;;;;;;5081923;28;20036;-73
2021/03/27 11:30:28;;;;;;;1.92;1.20;;;10.20;90.80;;;;;;5091530;28;20059;-74
2021/03/27 11:33:17;;;;;;;1.92;0.90;;;11.60;89.60;;;;;;5089004;28;20070;-73
2021/03/27 11:35:55;;;;;;;2.75;1.17;;;12.10;79.20;;;;;;5054536;28;20055;-72
2021/03/27 11:38:58;;;;;;;3.13;1.35;;;12.20;71.70;;;;;;5092725;28;20020;-71
2021/03/27 11:41:32;;;;;;;;;;;12.00;72.90;;;;;;5093124;28;20085;-73
2021/03/27 11:44:40;;;;;;;3.17;1.30;;;12.30;75.70;;;;;;5091434;28;19930;-73
2021/03/27 11:47:25;;;;;;;1.95;1.38;;;12.70;70.30;;;;;;5092527;28;20020;-72
2021/03/27 11:50:01;;;;;;;6.68;0.90;;;12.40;67.50;;;;;;5092535;28;20483;-73
2021/03/27 11:52:48;;;;;;;11.85;1.52;;;12.50;66.80;;;;;;5092490;28;20438;-73
2021/03/27 11:55:29;;;;;;;4.82;1.45;;;12.20;65.50;;;;;;5092387;28;20052;-73
2021/03/27 11:58:18;;;;;;;3.00;1.27;;;12.40;64.40;;;;;;5092338;28;20024;-73
2021/03/27 12:01:03;;;;;;;6.93;1.30;;;12.30;63.20;;;;;;5092337;28;20487;-73
2021/03/27 12:03:52;;;;;;;2.25;1.00;;;11.80;62.00;;;;;;5092438;28;20049;-73
2021/03/27 12:06:59;;;;;;;6.47;1.20;;;11.70;62.00;;;;;;5092110;28;20365;-73
2021/03/27 12:09:39;;;;;;;13.20;1.80;;;11.10;62.70;;;;;;5078331;28;20391;-73
2021/03/27 12:12:12;;;;;;;6.55;1.00;;;10.90;62.90;;;;;;5092128;28;20471;-73
2021/03/27 12:14:54;;;;;;;9.98;2.95;;;10.80;64.40;;;;;;5092038;28;20028;-73
2021/03/27 12:17:43;;;;;;;4.85;1.90;;;10.80;64.40;;;;;;5090864;28;20036;-73
2021/03/27 12:20:35;;;;;;;7.07;1.40;;;10.70;65.20;;;;;;5092109;28;20480;-73
2021/03/27 12:23:24;;;;;;;3.25;1.20;;;10.60;63.30;;;;;;5091932;28;20024;-72
2021/03/27 12:26:00;;;;;;;1.67;1.02;;;10.30;63.50;;;;;;5091543;28;20515;-73
2021/03/27 12:28:31;;;;;;;4.38;1.33;;;10.00;64.20;;;;;;5090652;28;20032;-73
2021/03/27 12:31:29;;;;;;;14.07;1.30;;;9.90;62.00;;;;;;5091925;28;20443;-73
2021/03/27 12:34:10;;;;;;;2.85;1.02;;;10.20;62.90;;;;;;5090482;28;20032;-73
2021/03/27 12:37:02;;;;;;;8.35;1.20;;;10.30;60.80;;;;;;5094018;28;20547;-73
2021/03/27 12:39:49;;;;;;;7.18;1.08;;;10.40;60.70;;;;;;5096121;28;20166;-73
2021/03/27 12:42:17;;;;;;;3.10;0.95;;;10.30;59.20;;;;;;5096014;28;20103;-73
2021/03/27 12:44:45;;;;;;;1.35;0.80;;;10.40;58.90;;;;;;5094626;28;20154;-73
2021/03/27 12:47:39;;;;;;;2.03;0.95;;;10.50;59.10;;;;;;5096020;28;20099;-73
2021/03/27 12:50:36;;;;;;;6.30;1.02;;;10.20;58.10;;;;;;5095998;28;20044;-72
2021/03/27 12:53:24;;;;;;;4.93;1.38;;;10.10;58.30;;;;;;5095778;28;20028;-73
2021/03/27 12:56:11;;;;;;;3.33;0.88;;;10.10;59.30;;;;;;5095766;28;20028;-73
2021/03/27 12:59:07;;;;;;;8.32;1.48;;;10.10;59.70;;;;;;5096535;28;20379;-74
2021/03/27 13:01:45;;;;;;;4.18;1.58;;;10.30;59.80;;;;;;5077663;28;20024;-76
2021/03/27 13:04:38;;;;;;;5.47;1.52;;;10.30;59.10;;;;;;5094530;28;20071;-73
2021/03/27 13:07:16;;;;;;;2.75;1.27;;;10.30;59.30;;;;;;5094317;28;20024;-73
2021/03/27 13:10:11;;;;;;;2.85;1.40;;;10.20;59.60;;;;;;5095482;28;20100;-73
2021/03/27 13:12:39;;;;;;;4.05;1.38;;;10.20;58.90;;;;;;5095505;28;20101;-73
2021/03/27 13:15:23;;;;;;;6.47;1.45;;;10.20;59.80;;;;;;5094183;28;20090;-73
2021/03/27 13:18:13;;;;;;;3.95;1.73;;;10.30;59.90;;;;;;5095446;28;20028;-74
2021/03/27 13:21:22;;;;;;;2.80;1.13;;;10.10;60.40;;;;;;5094282;28;20586;-73
2021/03/27 13:24:18;;;;;;;8.32;1.48;;;10.00;59.70;;;;;;5095275;28;20361;-74
2021/03/27 13:26:46;;;;;;;10.45;1.50;;;10.20;60.60;;;;;;5093941;28;20479;-74
2021/03/27 13:29:34;;;;;;;3.50;1.35;;;10.30;59.30;;;;;;5094026;28;20126;-72
2021/03/27 13:32:06;;;;;;;4.82;1.42;;;10.30;58.70;;;;;;5095119;28;20298;-74
2021/03/27 13:34:44;;;;;;;6.25;1.67;;;10.40;58.90;;;;;;5095113;28;20040;-73
2021/03/27 13:37:16;;;;;;;5.10;1.15;;;10.30;58.90;;;;;;5095101;28;20013;-73
2021/03/27 13:39:45;;;;;;;2.55;1.42;;;10.40;58.70;;;;;;5095060;28;20470;-70
2021/03/27 13:42:35;;;;;;;4.93;1.55;;;10.40;58.80;;;;;;5093649;28;20082;-72
2021/03/27 13:45:18;;;;;;;8.13;3.00;;;10.40;59.20;;;;;;5094868;28;20024;-72
2021/03/27 13:47:50;;;;;;;6.65;1.60;;;10.50;59.10;;;;;;5093426;28;20109;-73
2021/03/27 13:50:38;;;;;;;6.82;3.08;;;10.10;59.00;;;;;;5093822;28;20114;-72
2021/03/27 13:53:12;;;;;;;3.05;1.60;;;10.10;59.80;;;;;;5094626;28;20055;-72
2021/03/27 13:56:03;;;;;;;6.20;1.30;;;10.30;60.10;;;;;;5094609;28;20386;-72
2021/03/27 13:58:51;;;;;;;3.20;1.52;;;10.00;59.80;;;;;;5094554;28;20024;-73
2021/03/27 14:01:27;;;;;;;4.22;1.52;;;9.90;61.20;;;;;;5094643;28;20224;-72
2021/03/27 14:04:22;;;;;;;7.68;1.98;;;9.90;62.60;;;;;;5093231;28;20024;-73
2021/03/27 14:07:04;;;;;;;5.63;1.40;;;9.80;62.60;;;;;;5094517;28;20050;-73
2021/03/27 14:09:58;;;;;;;3.55;1.50;;;9.60;62.80;;;;;;5094234;28;20367;-73
2021/03/27 14:12:41;;;;;;;3.83;1.33;;;9.50;64.00;;;;;;5094423;28;20028;-73
2021/03/27 14:15:18;;;;;;;3.30;1.63;;;9.60;64.60;;;;;;5094184;28;20036;-72
2021/03/27 14:21:37;;;;;;;2.70;1.35;;;9.60;64.20;;;;;;5094358;28;20093;-71
2021/03/27 14:24:34;;;;;;;8.10;2.00;;;9.50;65.20;;;;;;5093940;28;20024;-72
2021/03/27 14:27:16;;;;;;;6.75;1.70;;;9.50;65.50;;;;;;5094130;28;20024;-73